sensor_id;sensor_type;location;lat;lon;timestamp;P1;durP1;ratioP1;P2;durP2;ratioP2
50781;SDS011;36749;37.428;-121.972;2022-12-18T00:01:40;26.05;;;15.77;;
50781;SDS011;36749;37.428;-121.972;2022-12-18T00:04:01;28.42;;;18.17;;
50781;SDS011;36749;37.428;-121.972;2022-12-18T00:06:31;30.02;;;18.70;;
50781;SDS011;36749;37.428;-121.972;2022-12-18T00:08:58;26.05;;;16.92;;
50781;SDS011;36749;37.428;-121.972;2022-12-18T00:11:26;31.42;;;19.30;;
50781;SDS011;36749;37.428;-121.972;2022-12-18T00:13:55;26.98;;;19.20;;
50781;SDS011;36749;37.428;-121.972;2022-12-18T00:16:22;30.65;;;18.83;;
50781;SDS011;36749;37.428;-121.972;2022-12-18T00:18:50;29.98;;;19.35;;
50781;SDS011;36749;37.428;-121.972;2022-12-18T00:21:19;28.17;;;17.23;;
50781;SDS011;36749;37.428;-121.972;2022-12-18T00:23:47;29.13;;;18.45;;
50781;SDS011;36749;37.428;-121.972;2022-12-18T00:26:14;31.92;;;19.60;;
50781;SDS011;36749;37.428;-121.972;2022-12-18T00:28:43;29.35;;;19.33;;
50781;SDS011;36749;37.428;-121.972;2022-12-18T00:31:11;30.23;;;18.95;;
50781;SDS011;36749;37.428;-121.972;2022-12-18T00:33:39;27.92;;;17.88;;
50781;SDS011;36749;37.428;-121.972;2022-12-18T00:36:06;28.02;;;18.45;;
50781;SDS011;36749;37.428;-121.972;2022-12-18T00:38:35;30.02;;;20.45;;
50781;SDS011;36749;37.428;-121.972;2022-12-18T00:41:02;32.67;;;21.02;;
50781;SDS011;36749;37.428;-121.972;2022-12-18T00:43:29;31.98;;;20.73;;
50781;SDS011;36749;37.428;-121.972;2022-12-18T00:45:55;31.65;;;21.38;;
50781;SDS011;36749;37.428;-121.972;2022-12-18T00:48:21;30.10;;;20.63;;
50781;SDS011;36749;37.428;-121.972;2022-12-18T00:50:48;32.88;;;20.55;;
50781;SDS011;36749;37.428;-121.972;2022-12-18T00:53:15;28.75;;;19.33;;
50781;SDS011;36749;37.428;-121.972;2022-12-18T00:55:41;32.85;;;20.33;;
50781;SDS011;36749;37.428;-121.972;2022-12-18T00:58:09;30.17;;;20.00;;
50781;SDS011;36749;37.428;-121.972;2022-12-18T01:00:36;31.33;;;21.42;;
50781;SDS011;36749;37.428;-121.972;2022-12-18T01:03:03;31.88;;;20.48;;
50781;SDS011;36749;37.428;-121.972;2022-12-18T01:05:30;30.27;;;20.42;;
50781;SDS011;36749;37.428;-121.972;2022-12-18T01:07:56;29.60;;;18.73;;
50781;SDS011;36749;37.428;-121.972;2022-12-18T01:10:23;27.52;;;18.58;;
50781;SDS011;36749;37.428;-121.972;2022-12-18T01:12:50;31.58;;;17.95;;
50781;SDS011;36749;37.428;-121.972;2022-12-18T01:15:16;25.40;;;16.33;;
50781;SDS011;36749;37.428;-121.972;2022-12-18T01:17:43;24.88;;;15.57;;
50781;SDS011;36749;37.428;-121.972;2022-12-18T01:20:11;23.88;;;14.63;;
50781;SDS011;36749;37.428;-121.972;2022-12-18T01:22:38;22.90;;;13.57;;
50781;SDS011;36749;37.428;-121.972;2022-12-18T01:25:04;22.25;;;12.85;;
50781;SDS011;36749;37.428;-121.972;2022-12-18T01:27:31;21.23;;;13.35;;
50781;SDS011;36749;37.428;-121.972;2022-12-18T01:29:58;22.65;;;12.60;;
50781;SDS011;36749;37.428;-121.972;2022-12-18T01:32:25;23.23;;;12.88;;
50781;SDS011;36749;37.428;-121.972;2022-12-18T01:34:51;28.58;;;13.75;;
50781;SDS011;36749;37.428;-121.972;2022-12-18T01:37:17;22.60;;;12.68;;
50781;SDS011;36749;37.428;-121.972;2022-12-18T01:39:43;21.92;;;12.32;;
50781;SDS011;36749;37.428;-121.972;2022-12-18T01:42:13;22.45;;;13.35;;
50781;SDS011;36749;37.428;-121.972;2022-12-18T01:53:02;16.52;;;10.07;;
50781;SDS011;36749;37.428;-121.972;2022-12-18T01:55:30;17.77;;;9.75;;
50781;SDS011;36749;37.428;-121.972;2022-12-18T01:57:58;20.55;;;10.38;;
50781;SDS011;36749;37.428;-121.972;2022-12-18T02:00:25;19.23;;;10.70;;
50781;SDS011;36749;37.428;-121.972;2022-12-18T02:02:52;17.90;;;9.93;;
50781;SDS011;36749;37.428;-121.972;2022-12-18T02:05:22;18.13;;;10.00;;
50781;SDS011;36749;37.428;-121.972;2022-12-18T02:08:03;15.88;;;9.13;;
50781;SDS011;36749;37.428;-121.972;2022-12-18T02:11:18;19.25;;;10.95;;
50781;SDS011;36749;37.428;-121.972;2022-12-18T02:16:52;21.02;;;11.80;;
50781;SDS011;36749;37.428;-121.972;2022-12-18T02:22:15;15.63;;;9.68;;
50781;SDS011;36749;37.428;-121.972;2022-12-18T02:27:44;18.20;;;10.40;;
50781;SDS011;36749;37.428;-121.972;2022-12-18T02:30:12;18.83;;;10.63;;
50781;SDS011;36749;37.428;-121.972;2022-12-18T02:32:43;21.15;;;11.18;;
50781;SDS011;36749;37.428;-121.972;2022-12-18T02:35:15;22.10;;;12.85;;
50781;SDS011;36749;37.428;-121.972;2022-12-18T02:37:43;23.98;;;12.57;;
50781;SDS011;36749;37.428;-121.972;2022-12-18T02:40:11;24.50;;;13.82;;
50781;SDS011;36749;37.428;-121.972;2022-12-18T02:42:38;23.83;;;13.38;;
50781;SDS011;36749;37.428;-121.972;2022-12-18T02:45:04;24.48;;;13.13;;
50781;SDS011;36749;37.428;-121.972;2022-12-18T02:47:31;21.88;;;12.68;;
50781;SDS011;36749;37.428;-121.972;2022-12-18T02:50:13;22.20;;;12.73;;
50781;SDS011;36749;37.428;-121.972;2022-12-18T02:55:54;21.30;;;12.80;;
50781;SDS011;36749;37.428;-121.972;2022-12-18T03:01:03;21.75;;;12.93;;
50781;SDS011;36749;37.428;-121.972;2022-12-18T03:06:08;25.77;;;14.15;;
50781;SDS011;36749;37.428;-121.972;2022-12-18T03:08:37;22.33;;;13.18;;
50781;SDS011;36749;37.428;-121.972;2022-12-18T03:11:08;22.60;;;13.48;;
50781;SDS011;36749;37.428;-121.972;2022-12-18T03:16:09;25.10;;;13.30;;
50781;SDS011;36749;37.428;-121.972;2022-12-18T03:18:50;25.05;;;13.90;;
50781;SDS011;36749;37.428;-121.972;2022-12-18T03:21:20;22.80;;;13.30;;
50781;SDS011;36749;37.428;-121.972;2022-12-18T03:23:49;26.38;;;14.63;;
50781;SDS011;36749;37.428;-121.972;2022-12-18T03:26:17;25.85;;;14.32;;
50781;SDS011;36749;37.428;-121.972;2022-12-18T03:28:47;27.27;;;14.77;;
50781;SDS011;36749;37.428;-121.972;2022-12-18T03:31:17;27.45;;;14.65;;
50781;SDS011;36749;37.428;-121.972;2022-12-18T03:33:52;22.05;;;12.48;;
50781;SDS011;36749;37.428;-121.972;2022-12-18T03:36:20;21.48;;;12.98;;
50781;SDS011;36749;37.428;-121.972;2022-12-18T03:38:47;25.67;;;13.98;;
50781;SDS011;36749;37.428;-121.972;2022-12-18T03:52:24;26.50;;;14.15;;
50781;SDS011;36749;37.428;-121.972;2022-12-18T03:55:05;26.42;;;14.75;;
50781;SDS011;36749;37.428;-121.972;2022-12-18T03:57:32;27.88;;;15.25;;
50781;SDS011;36749;37.428;-121.972;2022-12-18T04:00:07;27.98;;;16.17;;
50781;SDS011;36749;37.428;-121.972;2022-12-18T04:02:35;24.95;;;15.93;;
50781;SDS011;36749;37.428;-121.972;2022-12-18T04:05:03;29.15;;;15.50;;
50781;SDS011;36749;37.428;-121.972;2022-12-18T04:07:30;23.85;;;15.13;;
50781;SDS011;36749;37.428;-121.972;2022-12-18T04:09:58;24.92;;;14.88;;
50781;SDS011;36749;37.428;-121.972;2022-12-18T04:12:25;33.65;;;17.30;;
50781;SDS011;36749;37.428;-121.972;2022-12-18T04:14:51;29.58;;;16.23;;
50781;SDS011;36749;37.428;-121.972;2022-12-18T04:17:18;29.33;;;16.20;;
50781;SDS011;36749;37.428;-121.972;2022-12-18T04:19:44;32.67;;;14.35;;
50781;SDS011;36749;37.428;-121.972;2022-12-18T04:22:10;25.23;;;15.95;;
50781;SDS011;36749;37.428;-121.972;2022-12-18T04:24:36;24.27;;;14.90;;
50781;SDS011;36749;37.428;-121.972;2022-12-18T04:27:03;28.05;;;16.40;;
50781;SDS011;36749;37.428;-121.972;2022-12-18T04:29:29;35.35;;;17.33;;
50781;SDS011;36749;37.428;-121.972;2022-12-18T04:31:55;28.67;;;16.30;;
50781;SDS011;36749;37.428;-121.972;2022-12-18T04:34:22;26.38;;;15.75;;
50781;SDS011;36749;37.428;-121.972;2022-12-18T04:36:48;30.00;;;18.27;;
50781;SDS011;36749;37.428;-121.972;2022-12-18T04:39:14;29.92;;;16.13;;
50781;SDS011;36749;37.428;-121.972;2022-12-18T04:41:40;30.95;;;16.52;;
50781;SDS011;36749;37.428;-121.972;2022-12-18T04:44:06;28.10;;;17.60;;
50781;SDS011;36749;37.428;-121.972;2022-12-18T04:46:33;29.95;;;16.27;;
50781;SDS011;36749;37.428;-121.972;2022-12-18T04:48:59;28.70;;;17.02;;
50781;SDS011;36749;37.428;-121.972;2022-12-18T04:51:25;29.40;;;17.58;;
50781;SDS011;36749;37.428;-121.972;2022-12-18T04:53:51;27.13;;;16.45;;
50781;SDS011;36749;37.428;-121.972;2022-12-18T04:56:17;29.02;;;16.52;;
50781;SDS011;36749;37.428;-121.972;2022-12-18T04:58:44;27.00;;;15.68;;
50781;SDS011;36749;37.428;-121.972;2022-12-18T05:01:11;24.35;;;15.43;;
50781;SDS011;36749;37.428;-121.972;2022-12-18T05:03:38;34.97;;;17.67;;
50781;SDS011;36749;37.428;-121.972;2022-12-18T05:06:05;30.70;;;17.85;;
50781;SDS011;36749;37.428;-121.972;2022-12-18T05:08:31;32.42;;;17.63;;
50781;SDS011;36749;37.428;-121.972;2022-12-18T05:11:04;32.47;;;18.25;;
50781;SDS011;36749;37.428;-121.972;2022-12-18T05:13:32;28.10;;;17.35;;
50781;SDS011;36749;37.428;-121.972;2022-12-18T05:15:59;27.92;;;17.48;;
50781;SDS011;36749;37.428;-121.972;2022-12-18T05:18:26;28.80;;;17.05;;
50781;SDS011;36749;37.428;-121.972;2022-12-18T05:20:52;29.58;;;17.65;;
50781;SDS011;36749;37.428;-121.972;2022-12-18T05:23:19;31.45;;;18.67;;
50781;SDS011;36749;37.428;-121.972;2022-12-18T05:25:55;30.23;;;17.48;;
50781;SDS011;36749;37.428;-121.972;2022-12-18T05:28:23;28.63;;;17.70;;
50781;SDS011;36749;37.428;-121.972;2022-12-18T05:30:51;31.70;;;18.30;;
50781;SDS011;36749;37.428;-121.972;2022-12-18T05:33:18;31.13;;;19.13;;
50781;SDS011;36749;37.428;-121.972;2022-12-18T05:35:53;35.78;;;21.88;;
50781;SDS011;36749;37.428;-121.972;2022-12-18T05:38:23;32.75;;;19.75;;
50781;SDS011;36749;37.428;-121.972;2022-12-18T05:40:50;36.15;;;20.23;;
50781;SDS011;36749;37.428;-121.972;2022-12-18T05:43:18;29.83;;;19.50;;
50781;SDS011;36749;37.428;-121.972;2022-12-18T05:45:45;32.45;;;20.83;;
50781;SDS011;36749;37.428;-121.972;2022-12-18T05:48:11;33.90;;;20.17;;
50781;SDS011;36749;37.428;-121.972;2022-12-18T05:50:38;35.92;;;20.80;;
50781;SDS011;36749;37.428;-121.972;2022-12-18T05:53:06;31.98;;;19.52;;
50781;SDS011;36749;37.428;-121.972;2022-12-18T05:55:33;30.40;;;18.42;;
50781;SDS011;36749;37.428;-121.972;2022-12-18T05:58:00;34.47;;;19.85;;
50781;SDS011;36749;37.428;-121.972;2022-12-18T06:00:27;29.25;;;18.95;;
50781;SDS011;36749;37.428;-121.972;2022-12-18T06:02:53;30.45;;;19.15;;
50781;SDS011;36749;37.428;-121.972;2022-12-18T06:05:19;33.10;;;19.20;;
50781;SDS011;36749;37.428;-121.972;2022-12-18T06:07:45;31.77;;;18.65;;
50781;SDS011;36749;37.428;-121.972;2022-12-18T06:10:12;35.47;;;19.33;;
50781;SDS011;36749;37.428;-121.972;2022-12-18T06:12:38;31.33;;;18.63;;
50781;SDS011;36749;37.428;-121.972;2022-12-18T06:15:04;31.85;;;19.58;;
50781;SDS011;36749;37.428;-121.972;2022-12-18T06:17:31;30.15;;;18.63;;
50781;SDS011;36749;37.428;-121.972;2022-12-18T06:19:58;30.48;;;19.30;;
50781;SDS011;36749;37.428;-121.972;2022-12-18T06:22:24;33.50;;;19.42;;
50781;SDS011;36749;37.428;-121.972;2022-12-18T06:24:51;34.80;;;20.25;;
50781;SDS011;36749;37.428;-121.972;2022-12-18T06:27:17;31.25;;;19.45;;
50781;SDS011;36749;37.428;-121.972;2022-12-18T06:29:43;31.65;;;19.58;;
50781;SDS011;36749;37.428;-121.972;2022-12-18T06:32:10;31.20;;;18.88;;
50781;SDS011;36749;37.428;-121.972;2022-12-18T06:34:37;26.70;;;17.70;;
50781;SDS011;36749;37.428;-121.972;2022-12-18T06:37:03;30.83;;;18.75;;
50781;SDS011;36749;37.428;-121.972;2022-12-18T06:39:29;33.95;;;19.75;;
50781;SDS011;36749;37.428;-121.972;2022-12-18T06:41:56;29.27;;;18.52;;
50781;SDS011;36749;37.428;-121.972;2022-12-18T06:44:22;34.15;;;18.90;;
50781;SDS011;36749;37.428;-121.972;2022-12-18T06:46:48;33.53;;;18.45;;
50781;SDS011;36749;37.428;-121.972;2022-12-18T06:49:14;28.63;;;17.52;;
50781;SDS011;36749;37.428;-121.972;2022-12-18T06:51:41;30.20;;;18.45;;
50781;SDS011;36749;37.428;-121.972;2022-12-18T06:54:07;31.33;;;18.15;;
50781;SDS011;36749;37.428;-121.972;2022-12-18T06:56:34;30.08;;;17.90;;
50781;SDS011;36749;37.428;-121.972;2022-12-18T06:59:00;33.95;;;17.60;;
50781;SDS011;36749;37.428;-121.972;2022-12-18T07:01:26;30.30;;;18.05;;
50781;SDS011;36749;37.428;-121.972;2022-12-18T07:03:53;28.58;;;16.63;;
50781;SDS011;36749;37.428;-121.972;2022-12-18T07:06:21;27.20;;;17.70;;
50781;SDS011;36749;37.428;-121.972;2022-12-18T07:08:49;29.60;;;16.67;;
50781;SDS011;36749;37.428;-121.972;2022-12-18T07:11:16;30.00;;;16.58;;
50781;SDS011;36749;37.428;-121.972;2022-12-18T07:13:43;31.95;;;17.67;;
50781;SDS011;36749;37.428;-121.972;2022-12-18T07:16:14;28.50;;;18.05;;
50781;SDS011;36749;37.428;-121.972;2022-12-18T07:18:44;28.58;;;17.67;;
50781;SDS011;36749;37.428;-121.972;2022-12-18T07:21:11;28.73;;;17.48;;
50781;SDS011;36749;37.428;-121.972;2022-12-18T07:23:39;28.38;;;17.33;;
50781;SDS011;36749;37.428;-121.972;2022-12-18T07:26:06;25.52;;;17.13;;
50781;SDS011;36749;37.428;-121.972;2022-12-18T07:28:34;24.90;;;15.93;;
50781;SDS011;36749;37.428;-121.972;2022-12-18T07:31:05;29.50;;;17.13;;
50781;SDS011;36749;37.428;-121.972;2022-12-18T07:33:32;29.55;;;15.70;;
50781;SDS011;36749;37.428;-121.972;2022-12-18T07:36:07;29.70;;;17.45;;
50781;SDS011;36749;37.428;-121.972;2022-12-18T07:38:35;24.90;;;14.90;;
50781;SDS011;36749;37.428;-121.972;2022-12-18T07:41:05;30.02;;;15.85;;
50781;SDS011;36749;37.428;-121.972;2022-12-18T07:43:35;24.02;;;15.38;;
50781;SDS011;36749;37.428;-121.972;2022-12-18T07:46:03;26.40;;;16.88;;
50781;SDS011;36749;37.428;-121.972;2022-12-18T07:48:29;26.95;;;17.08;;
50781;SDS011;36749;37.428;-121.972;2022-12-18T07:50:59;28.08;;;16.85;;
50781;SDS011;36749;37.428;-121.972;2022-12-18T07:53:26;30.25;;;17.75;;
50781;SDS011;36749;37.428;-121.972;2022-12-18T07:55:56;26.13;;;16.88;;
50781;SDS011;36749;37.428;-121.972;2022-12-18T07:58:23;28.52;;;16.88;;
50781;SDS011;36749;37.428;-121.972;2022-12-18T08:00:49;28.80;;;16.17;;
50781;SDS011;36749;37.428;-121.972;2022-12-18T08:03:16;28.38;;;17.35;;
50781;SDS011;36749;37.428;-121.972;2022-12-18T08:05:42;28.25;;;17.17;;
50781;SDS011;36749;37.428;-121.972;2022-12-18T08:08:08;27.10;;;16.40;;
50781;SDS011;36749;37.428;-121.972;2022-12-18T08:10:34;29.98;;;16.63;;
50781;SDS011;36749;37.428;-121.972;2022-12-18T08:13:00;29.52;;;17.10;;
50781;SDS011;36749;37.428;-121.972;2022-12-18T08:15:26;29.45;;;17.30;;
50781;SDS011;36749;37.428;-121.972;2022-12-18T08:17:55;32.67;;;18.83;;
50781;SDS011;36749;37.428;-121.972;2022-12-18T08:20:22;28.27;;;17.92;;
50781;SDS011;36749;37.428;-121.972;2022-12-18T08:22:48;29.33;;;17.83;;
50781;SDS011;36749;37.428;-121.972;2022-12-18T08:25:14;30.92;;;18.27;;
50781;SDS011;36749;37.428;-121.972;2022-12-18T08:27:40;29.58;;;19.00;;
50781;SDS011;36749;37.428;-121.972;2022-12-18T08:30:07;37.97;;;21.95;;
50781;SDS011;36749;37.428;-121.972;2022-12-18T08:32:34;35.88;;;20.63;;
50781;SDS011;36749;37.428;-121.972;2022-12-18T08:35:00;34.85;;;20.50;;
50781;SDS011;36749;37.428;-121.972;2022-12-18T08:37:26;31.88;;;19.83;;
50781;SDS011;36749;37.428;-121.972;2022-12-18T08:39:52;36.05;;;21.10;;
50781;SDS011;36749;37.428;-121.972;2022-12-18T08:42:18;35.47;;;21.50;;
50781;SDS011;36749;37.428;-121.972;2022-12-18T08:45:03;36.80;;;20.17;;
50781;SDS011;36749;37.428;-121.972;2022-12-18T08:47:29;36.30;;;21.08;;
50781;SDS011;36749;37.428;-121.972;2022-12-18T08:49:55;37.15;;;21.25;;
50781;SDS011;36749;37.428;-121.972;2022-12-18T08:52:21;35.53;;;21.95;;
50781;SDS011;36749;37.428;-121.972;2022-12-18T08:54:48;36.10;;;21.30;;
50781;SDS011;36749;37.428;-121.972;2022-12-18T08:57:14;34.08;;;21.15;;
50781;SDS011;36749;37.428;-121.972;2022-12-18T08:59:40;35.55;;;23.35;;
50781;SDS011;36749;37.428;-121.972;2022-12-18T09:02:07;32.35;;;21.00;;
50781;SDS011;36749;37.428;-121.972;2022-12-18T09:04:35;33.00;;;21.00;;
50781;SDS011;36749;37.428;-121.972;2022-12-18T09:07:01;35.38;;;21.33;;
50781;SDS011;36749;37.428;-121.972;2022-12-18T09:09:27;31.67;;;20.05;;
50781;SDS011;36749;37.428;-121.972;2022-12-18T09:11:54;36.30;;;22.35;;
50781;SDS011;36749;37.428;-121.972;2022-12-18T09:14:20;35.38;;;20.77;;
50781;SDS011;36749;37.428;-121.972;2022-12-18T09:16:46;34.30;;;20.27;;
50781;SDS011;36749;37.428;-121.972;2022-12-18T09:19:12;27.08;;;16.42;;
50781;SDS011;36749;37.428;-121.972;2022-12-18T09:21:38;30.17;;;17.13;;
50781;SDS011;36749;37.428;-121.972;2022-12-18T09:24:05;29.17;;;16.50;;
50781;SDS011;36749;37.428;-121.972;2022-12-18T09:26:31;27.95;;;15.50;;
50781;SDS011;36749;37.428;-121.972;2022-12-18T09:28:57;23.25;;;14.52;;
50781;SDS011;36749;37.428;-121.972;2022-12-18T09:31:23;24.73;;;14.52;;
50781;SDS011;36749;37.428;-121.972;2022-12-18T09:33:50;22.02;;;13.98;;
50781;SDS011;36749;37.428;-121.972;2022-12-18T09:36:17;22.63;;;13.95;;
50781;SDS011;36749;37.428;-121.972;2022-12-18T09:38:44;25.05;;;14.02;;
50781;SDS011;36749;37.428;-121.972;2022-12-18T09:43:52;22.88;;;13.68;;
50781;SDS011;36749;37.428;-121.972;2022-12-18T09:46:41;24.95;;;14.73;;
50781;SDS011;36749;37.428;-121.972;2022-12-18T09:49:16;22.80;;;13.15;;
50781;SDS011;36749;37.428;-121.972;2022-12-18T09:54:15;25.20;;;14.60;;
50781;SDS011;36749;37.428;-121.972;2022-12-18T09:56:47;26.92;;;15.52;;
50781;SDS011;36749;37.428;-121.972;2022-12-18T09:59:18;26.42;;;14.73;;
50781;SDS011;36749;37.428;-121.972;2022-12-18T10:02:16;24.10;;;14.60;;
50781;SDS011;36749;37.428;-121.972;2022-12-18T10:04:48;23.20;;;13.82;;
50781;SDS011;36749;37.428;-121.972;2022-12-18T10:10:19;25.48;;;14.35;;
50781;SDS011;36749;37.428;-121.972;2022-12-18T10:27:28;21.00;;;13.43;;
50781;SDS011;36749;37.428;-121.972;2022-12-18T10:29:54;24.27;;;14.18;;
50781;SDS011;36749;37.428;-121.972;2022-12-18T10:32:22;22.98;;;13.75;;
50781;SDS011;36749;37.428;-121.972;2022-12-18T10:34:53;27.00;;;15.90;;
50781;SDS011;36749;37.428;-121.972;2022-12-18T10:37:23;25.73;;;14.82;;
50781;SDS011;36749;37.428;-121.972;2022-12-18T10:40:13;30.42;;;16.45;;
50781;SDS011;36749;37.428;-121.972;2022-12-18T10:42:39;24.20;;;14.57;;
50781;SDS011;36749;37.428;-121.972;2022-12-18T10:45:12;24.95;;;15.45;;
50781;SDS011;36749;37.428;-121.972;2022-12-18T10:47:48;26.42;;;15.18;;
50781;SDS011;36749;37.428;-121.972;2022-12-18T10:50:34;31.10;;;15.77;;
50781;SDS011;36749;37.428;-121.972;2022-12-18T10:53:04;22.08;;;13.38;;
50781;SDS011;36749;37.428;-121.972;2022-12-18T10:55:35;27.20;;;14.52;;
50781;SDS011;36749;37.428;-121.972;2022-12-18T10:58:13;27.00;;;13.90;;
50781;SDS011;36749;37.428;-121.972;2022-12-18T11:03:32;27.40;;;15.35;;
50781;SDS011;36749;37.428;-121.972;2022-12-18T11:06:05;26.88;;;15.57;;
50781;SDS011;36749;37.428;-121.972;2022-12-18T11:08:32;25.30;;;15.82;;
50781;SDS011;36749;37.428;-121.972;2022-12-18T11:10:58;26.65;;;16.02;;
50781;SDS011;36749;37.428;-121.972;2022-12-18T11:13:26;28.55;;;15.90;;
50781;SDS011;36749;37.428;-121.972;2022-12-18T11:15:54;26.50;;;16.13;;
50781;SDS011;36749;37.428;-121.972;2022-12-18T11:18:34;29.08;;;16.02;;
50781;SDS011;36749;37.428;-121.972;2022-12-18T11:21:08;31.13;;;17.08;;
50781;SDS011;36749;37.428;-121.972;2022-12-18T11:23:35;24.45;;;15.45;;
50781;SDS011;36749;37.428;-121.972;2022-12-18T11:26:03;27.98;;;15.55;;
50781;SDS011;36749;37.428;-121.972;2022-12-18T11:28:35;28.48;;;15.82;;
50781;SDS011;36749;37.428;-121.972;2022-12-18T11:31:26;32.97;;;20.08;;
50781;SDS011;36749;37.428;-121.972;2022-12-18T11:34:01;25.95;;;15.48;;
50781;SDS011;36749;37.428;-121.972;2022-12-18T11:36:33;29.77;;;18.23;;
50781;SDS011;36749;37.428;-121.972;2022-12-18T11:39:07;28.38;;;16.80;;
50781;SDS011;36749;37.428;-121.972;2022-12-18T11:41:47;24.85;;;15.35;;
50781;SDS011;36749;37.428;-121.972;2022-12-18T11:44:38;30.90;;;18.42;;
50781;SDS011;36749;37.428;-121.972;2022-12-18T11:50:03;31.30;;;16.60;;
50781;SDS011;36749;37.428;-121.972;2022-12-18T11:52:38;30.40;;;17.05;;
50781;SDS011;36749;37.428;-121.972;2022-12-18T11:55:49;34.33;;;18.42;;
50781;SDS011;36749;37.428;-121.972;2022-12-18T11:58:59;26.88;;;16.27;;
50781;SDS011;36749;37.428;-121.972;2022-12-18T12:01:29;27.27;;;16.80;;
50781;SDS011;36749;37.428;-121.972;2022-12-18T12:07:25;28.65;;;16.75;;
50781;SDS011;36749;37.428;-121.972;2022-12-18T12:12:25;26.98;;;15.50;;
50781;SDS011;36749;37.428;-121.972;2022-12-18T12:18:45;25.73;;;15.27;;
50781;SDS011;36749;37.428;-121.972;2022-12-18T12:20:58;27.80;;;16.00;;
50781;SDS011;36749;37.428;-121.972;2022-12-18T12:35:16;28.30;;;15.52;;
50781;SDS011;36749;37.428;-121.972;2022-12-18T12:38:08;25.92;;;15.10;;
50781;SDS011;36749;37.428;-121.972;2022-12-18T12:40:39;25.48;;;15.57;;
50781;SDS011;36749;37.428;-121.972;2022-12-18T12:45:51;27.92;;;15.55;;
50781;SDS011;36749;37.428;-121.972;2022-12-18T12:50:58;28.25;;;15.63;;
50781;SDS011;36749;37.428;-121.972;2022-12-18T12:53:29;31.85;;;18.13;;
50781;SDS011;36749;37.428;-121.972;2022-12-18T12:55:58;26.58;;;16.38;;
50781;SDS011;36749;37.428;-121.972;2022-12-18T12:58:33;29.38;;;17.10;;
50781;SDS011;36749;37.428;-121.972;2022-12-18T13:01:14;29.00;;;17.60;;
50781;SDS011;36749;37.428;-121.972;2022-12-18T13:04:03;28.92;;;17.95;;
50781;SDS011;36749;37.428;-121.972;2022-12-18T13:09:18;31.48;;;18.75;;
50781;SDS011;36749;37.428;-121.972;2022-12-18T13:11:45;31.58;;;18.40;;
50781;SDS011;36749;37.428;-121.972;2022-12-18T13:14:31;31.13;;;17.70;;
50781;SDS011;36749;37.428;-121.972;2022-12-18T13:19:40;25.65;;;16.20;;
50781;SDS011;36749;37.428;-121.972;2022-12-18T13:22:19;27.30;;;16.85;;
50781;SDS011;36749;37.428;-121.972;2022-12-18T13:24:51;31.83;;;18.13;;
50781;SDS011;36749;37.428;-121.972;2022-12-18T13:38:23;27.85;;;16.83;;
50781;SDS011;36749;37.428;-121.972;2022-12-18T13:46:06;27.70;;;16.40;;
50781;SDS011;36749;37.428;-121.972;2022-12-18T13:49:03;26.92;;;15.95;;
50781;SDS011;36749;37.428;-121.972;2022-12-18T13:51:52;29.60;;;14.98;;
50781;SDS011;36749;37.428;-121.972;2022-12-18T13:56:51;24.73;;;15.10;;
50781;SDS011;36749;37.428;-121.972;2022-12-18T13:59:19;25.63;;;15.95;;
50781;SDS011;36749;37.428;-121.972;2022-12-18T14:04:25;25.73;;;14.95;;
50781;SDS011;36749;37.428;-121.972;2022-12-18T14:07:10;23.95;;;14.20;;
50781;SDS011;36749;37.428;-121.972;2022-12-18T14:09:45;23.67;;;14.18;;
50781;SDS011;36749;37.428;-121.972;2022-12-18T14:12:18;24.52;;;14.52;;
50781;SDS011;36749;37.428;-121.972;2022-12-18T14:17:53;28.77;;;16.50;;
50781;SDS011;36749;37.428;-121.972;2022-12-18T14:20:21;22.88;;;14.18;;
50781;SDS011;36749;37.428;-121.972;2022-12-18T14:22:48;30.45;;;16.02;;
50781;SDS011;36749;37.428;-121.972;2022-12-18T14:25:16;26.42;;;15.65;;
50781;SDS011;36749;37.428;-121.972;2022-12-18T14:30:37;28.65;;;15.90;;
50781;SDS011;36749;37.428;-121.972;2022-12-18T14:33:06;26.15;;;14.75;;
50781;SDS011;36749;37.428;-121.972;2022-12-18T14:35:37;24.48;;;15.25;;
50781;SDS011;36749;37.428;-121.972;2022-12-18T14:40:55;24.90;;;14.25;;
50781;SDS011;36749;37.428;-121.972;2022-12-18T14:43:38;27.00;;;14.93;;
50781;SDS011;36749;37.428;-121.972;2022-12-18T14:46:19;24.67;;;14.95;;
50781;SDS011;36749;37.428;-121.972;2022-12-18T14:48:57;25.50;;;15.55;;
50781;SDS011;36749;37.428;-121.972;2022-12-18T14:51:26;23.73;;;14.90;;
50781;SDS011;36749;37.428;-121.972;2022-12-18T14:56:29;25.02;;;13.60;;
50781;SDS011;36749;37.428;-121.972;2022-12-18T14:59:01;24.75;;;13.55;;
50781;SDS011;36749;37.428;-121.972;2022-12-18T15:01:39;26.25;;;14.55;;
50781;SDS011;36749;37.428;-121.972;2022-12-18T15:07:14;30.52;;;15.38;;
50781;SDS011;36749;37.428;-121.972;2022-12-18T15:12:34;28.48;;;15.32;;
50781;SDS011;36749;37.428;-121.972;2022-12-18T15:15:02;24.98;;;13.98;;
50781;SDS011;36749;37.428;-121.972;2022-12-18T15:17:30;31.02;;;16.33;;
50781;SDS011;36749;37.428;-121.972;2022-12-18T15:20:00;29.85;;;15.27;;
50781;SDS011;36749;37.428;-121.972;2022-12-18T15:22:29;24.48;;;15.07;;
50781;SDS011;36749;37.428;-121.972;2022-12-18T15:24:58;25.50;;;15.60;;
50781;SDS011;36749;37.428;-121.972;2022-12-18T15:27:26;25.70;;;14.50;;
50781;SDS011;36749;37.428;-121.972;2022-12-18T15:30:16;24.38;;;14.15;;
50781;SDS011;36749;37.428;-121.972;2022-12-18T15:35:57;27.20;;;15.00;;
50781;SDS011;36749;37.428;-121.972;2022-12-18T15:38:24;26.45;;;14.10;;
50781;SDS011;36749;37.428;-121.972;2022-12-18T15:40:52;28.38;;;16.58;;
50781;SDS011;36749;37.428;-121.972;2022-12-18T15:43:20;27.70;;;14.50;;
50781;SDS011;36749;37.428;-121.972;2022-12-18T15:46:00;25.52;;;14.55;;
50781;SDS011;36749;37.428;-121.972;2022-12-18T15:48:27;25.45;;;15.90;;
50781;SDS011;36749;37.428;-121.972;2022-12-18T15:50:54;27.48;;;15.05;;
50781;SDS011;36749;37.428;-121.972;2022-12-18T15:53:23;26.63;;;16.73;;
50781;SDS011;36749;37.428;-121.972;2022-12-18T15:55:50;26.42;;;15.57;;
50781;SDS011;36749;37.428;-121.972;2022-12-18T15:58:35;25.95;;;16.17;;
50781;SDS011;36749;37.428;-121.972;2022-12-18T16:01:01;23.80;;;14.38;;
50781;SDS011;36749;37.428;-121.972;2022-12-18T16:03:28;27.23;;;15.13;;
50781;SDS011;36749;37.428;-121.972;2022-12-18T16:05:54;25.98;;;15.05;;
50781;SDS011;36749;37.428;-121.972;2022-12-18T16:08:20;25.67;;;15.38;;
50781;SDS011;36749;37.428;-121.972;2022-12-18T16:10:47;26.02;;;15.13;;
50781;SDS011;36749;37.428;-121.972;2022-12-18T16:13:14;27.55;;;16.13;;
50781;SDS011;36749;37.428;-121.972;2022-12-18T16:15:41;26.00;;;14.85;;
50781;SDS011;36749;37.428;-121.972;2022-12-18T16:18:08;23.67;;;14.02;;
50781;SDS011;36749;37.428;-121.972;2022-12-18T16:20:34;23.15;;;15.18;;